Time;durP1;ratioP1;P1;durP2;ratioP2;P2;SDS_P1;SDS_P2;PMS_P1;PMS_P2;Temp;Humidity;BMP_temperature;BMP_pressure;BME280_temperature;BME280_humidity;BME280_pressure;Samples;Min_cycle;Max_cycle;Signal;HPM_P1;HPM_P2
2021/12/10 00:01:37;;;;;;;;;;;7.60;63.50;;;;;;5052561;28;20439;-64
2021/12/10 00:04:04;;;;;;;;;;;7.60;63.50;;;;;;5051079;28;19995;-65
2021/12/10 00:06:33;;;;;;;;;;;7.60;63.40;;;;;;5052458;28;20003;-65
2021/12/10 00:09:04;;;;;;;;;;;7.60;63.30;;;;;;5052429;28;19938;-65
2021/12/10 00:11:32;;;;;;;;;;;7.60;63.20;;;;;;5052515;28;19916;-64
2021/12/10 00:13:59;;;;;;;;;;;7.60;63.30;;;;;;5058465;28;19920;-64
2021/12/10 00:16:25;;;;;;;;;;;7.60;63.20;;;;;;5062763;28;20294;-64
2021/12/10 00:18:55;;;;;;;;;;;7.60;63.20;;;;;;5062248;28;19909;-64
2021/12/10 00:21:23;;;;;;;;;;;7.60;63.10;;;;;;5052377;28;19919;-64
2021/12/10 00:23:50;;;;;;;;;;;7.60;63.10;;;;;;5052279;28;19909;-64
2021/12/10 00:26:18;;;;;;;;;;;7.60;63.10;;;;;;5052078;28;19935;-65
2021/12/10 00:28:44;;;;;;;;;;;7.60;63.20;;;;;;5052215;28;19909;-64
2021/12/10 00:31:21;;;;;;;;;;;7.60;63.10;;;;;;5052007;28;19915;-64
2021/12/10 00:33:46;;;;;;;;;;;7.50;63.00;;;;;;5052265;28;19996;-64
2021/12/10 00:36:12;;;;;;;;;;;7.50;63.00;;;;;;5051751;28;20020;-64
2021/12/10 00:38:38;;;;;;;;;;;7.50;63.00;;;;;;5052060;28;19948;-65
2021/12/10 00:41:04;;;;;;;;;;;7.50;63.00;;;;;;5052133;28;20426;-64
2021/12/10 00:43:31;;;;;;;;;;;7.40;63.10;;;;;;5052100;28;20036;-64
2021/12/10 00:45:57;;;;;;;;;;;7.50;63.10;;;;;;5054783;28;20382;-64
2021/12/10 00:48:22;;;;;;;;;;;7.40;63.10;;;;;;5054878;28;19913;-64
2021/12/10 00:50:49;;;;;;;;;;;7.40;63.20;;;;;;5056088;28;19915;-64
2021/12/10 00:53:16;;;;;;;;;;;7.40;63.20;;;;;;5070947;28;19920;-65
2021/12/10 00:55:41;;;;;;;;;;;7.40;63.30;;;;;;5065581;28;19961;-65
2021/12/10 00:58:07;;;;;;;;;;;7.50;63.30;;;;;;5055772;28;19920;-64
2021/12/10 01:00:35;;;;;;;;;;;7.40;63.30;;;;;;5056005;28;19955;-64
2021/12/10 01:03:02;;;;;;;;;;;7.50;63.40;;;;;;5056005;28;20235;-64
2021/12/10 01:05:28;;;;;;;;;;;7.50;63.40;;;;;;5055920;28;19909;-64
2021/12/10 01:07:53;;;;;;;;;;;7.50;63.40;;;;;;5055660;28;19923;-64
2021/12/10 01:10:28;;;;;;;;;;;7.50;63.30;;;;;;5055784;28;19909;-65
2021/12/10 01:12:55;;;;;;;;;;;7.50;63.20;;;;;;5055727;28;19917;-65
2021/12/10 01:28:38;;;;;;;;;;;7.50;63.30;;;;;;5055549;28;19987;-64
2021/12/10 01:31:04;;;;;;;;;;;7.50;63.20;;;;;;5055319;28;19909;-65
2021/12/10 01:33:29;;;;;;;;;;;7.50;63.30;;;;;;5055127;28;19989;-64
2021/12/10 01:35:57;;;;;;;;;;;7.50;63.30;;;;;;5055315;28;20031;-64
2021/12/10 01:38:23;;;;;;;;;;;7.60;63.30;;;;;;5055959;28;19920;-64
2021/12/10 01:40:53;;;;;;;;;;;7.60;63.30;;;;;;5056406;28;20066;-64
2021/12/10 01:43:23;;;;;;;;;;;7.60;63.20;;;;;;5055893;28;20401;-64
2021/12/10 01:46:10;;;;;;;;;;;7.60;63.20;;;;;;5055849;28;20286;-65
2021/12/10 01:48:44;;;;;;;;;;;7.60;63.10;;;;;;5054557;28;19916;-64
2021/12/10 01:51:12;;;;;;;;;;;7.60;63.00;;;;;;5055859;28;19909;-65
2021/12/10 01:53:39;;;;;;;;;;;7.50;62.80;;;;;;5055627;28;20009;-65
2021/12/10 01:56:07;;;;;;;;;;;7.50;62.80;;;;;;5054945;28;19916;-64
2021/12/10 01:58:33;;;;;;;;;;;7.40;62.60;;;;;;5055371;28;19913;-64
2021/12/10 02:01:00;;;;;;;;;;;7.30;62.50;;;;;;5055586;28;19916;-64
2021/12/10 02:03:26;;;;;;;;;;;7.30;62.50;;;;;;5055440;28;19909;-64
2021/12/10 02:05:52;;;;;;;;;;;7.20;62.40;;;;;;5055182;28;19920;-64
2021/12/10 02:08:18;;;;;;;;;;;7.20;62.50;;;;;;5055316;28;20389;-64
2021/12/10 02:10:43;;;;;;;;;;;7.10;62.50;;;;;;5055267;28;20281;-65
2021/12/10 02:13:09;;;;;;;;;;;7.00;62.50;;;;;;5055285;28;19909;-64
2021/12/10 02:15:35;;;;;;;;;;;7.00;62.30;;;;;;5055027;28;19913;-64
2021/12/10 02:18:01;;;;;;;;;;;6.90;62.20;;;;;;5064317;28;19920;-64
2021/12/10 02:20:28;;;;;;;;;;;6.80;62.10;;;;;;5075187;28;19940;-64
2021/12/10 02:22:54;;;;;;;;;;;6.70;62.10;;;;;;5075098;28;19908;-64
2021/12/10 02:25:22;;;;;;;;;;;6.60;62.00;;;;;;5075061;28;20029;-64
2021/12/10 02:27:48;;;;;;;;;;;6.50;62.00;;;;;;5063176;28;20000;-64
2021/12/10 02:30:15;;;;;;;;;;;6.40;62.00;;;;;;5059568;28;19913;-64
2021/12/10 02:32:41;;;;;;;;;;;6.30;62.10;;;;;;5074977;28;20380;-64
2021/12/10 02:35:07;;;;;;;;;;;6.30;62.10;;;;;;5074991;28;19908;-64
2021/12/10 02:37:33;;;;;;;;;;;6.10;62.20;;;;;;5074757;28;19912;-64
2021/12/10 02:39:59;;;;;;;;;;;6.10;62.30;;;;;;5074875;28;19915;-64
2021/12/10 02:42:25;;;;;;;;;;;6.00;62.50;;;;;;5068161;28;19952;-64
2021/12/10 02:44:50;;;;;;;;;;;6.00;62.80;;;;;;5054732;28;19951;-64
2021/12/10 02:47:20;;;;;;;;;;;6.00;63.20;;;;;;5054681;28;19919;-64
2021/12/10 02:49:46;;;;;;;;;;;6.00;63.50;;;;;;5054630;28;20334;-64
2021/12/10 02:52:13;;;;;;;;;;;6.00;63.80;;;;;;5057758;28;19943;-64
2021/12/10 02:54:42;;;;;;;;;;;6.00;64.00;;;;;;5069302;28;19919;-65
2021/12/10 02:57:10;;;;;;;;;;;6.10;64.20;;;;;;5054424;28;20385;-64
2021/12/10 02:59:37;;;;;;;;;;;6.20;64.40;;;;;;5054483;28;19913;-65
2021/12/10 03:02:04;;;;;;;;;;;6.20;64.50;;;;;;5054467;28;19909;-64
2021/12/10 03:04:31;;;;;;;;;;;6.30;64.60;;;;;;5054308;28;19908;-64
2021/12/10 03:07:00;;;;;;;;;;;6.30;64.50;;;;;;5055733;28;19913;-64
2021/12/10 03:09:27;;;;;;;;;;;6.40;64.60;;;;;;5072728;28;20388;-64
2021/12/10 03:11:56;;;;;;;;;;;6.50;64.60;;;;;;5074250;28;19912;-64
2021/12/10 03:14:27;;;;;;;;;;;6.50;64.50;;;;;;5074208;28;19908;-64
2021/12/10 03:16:54;;;;;;;;;;;6.60;64.50;;;;;;5072287;28;20011;-64
2021/12/10 03:19:19;;;;;;;;;;;6.60;64.40;;;;;;5069619;28;20072;-64
2021/12/10 03:21:45;;;;;;;;;;;6.60;64.30;;;;;;5054105;28;20000;-65
2021/12/10 03:24:16;;;;;;;;;;;6.70;65.10;;;;;;5054014;28;19908;-64
2021/12/10 03:26:42;;;;;;;;;;;6.70;64.40;;;;;;5053785;28;19905;-64
2021/12/10 03:29:07;;;;;;;;;;;6.80;64.40;;;;;;5054202;28;20431;-64
2021/12/10 03:31:33;;;;;;;;;;;6.80;64.40;;;;;;5053955;28;19943;-64
2021/12/10 03:33:59;;;;;;;;;;;6.80;64.40;;;;;;5053821;28;19921;-64
2021/12/10 03:36:25;;;;;;;;;;;6.90;64.40;;;;;;5053696;28;20278;-64
2021/12/10 03:38:52;;;;;;;;;;;6.90;64.20;;;;;;5053620;28;19912;-64
2021/12/10 03:41:18;;;;;;;;;;;6.90;64.20;;;;;;5053378;28;19908;-64
2021/12/10 03:43:45;;;;;;;;;;;6.90;64.10;;;;;;5053640;28;19940;-65
2021/12/10 03:46:11;;;;;;;;;;;6.90;64.10;;;;;;5070477;28;19919;-64
2021/12/10 03:48:40;;;;;;;;;;;6.90;64.20;;;;;;5072182;28;19966;-64
2021/12/10 03:51:08;;;;;;;;;;;7.00;64.20;;;;;;5073485;28;19966;-64
2021/12/10 03:53:34;;;;;;;;;;;6.90;63.90;;;;;;5073414;28;20423;-65
2021/12/10 03:56:02;;;;;;;;;;;6.90;63.90;;;;;;5073336;28;19932;-64
2021/12/10 03:58:27;;;;;;;;;;;6.90;63.90;;;;;;5055765;28;20007;-64
2021/12/10 04:00:54;;;;;;;;;;;6.90;63.90;;;;;;5053230;28;20322;-64
2021/12/10 04:03:21;;;;;;;;;;;6.90;63.80;;;;;;5053252;28;19909;-64
2021/12/10 04:05:47;;;;;;;;;;;6.90;63.70;;;;;;5053336;28;19909;-65
2021/12/10 04:08:13;;;;;;;;;;;6.90;63.50;;;;;;5053210;28;19951;-63
2021/12/10 04:10:39;;;;;;;;;;;6.80;63.30;;;;;;5072707;28;19940;-64
2021/12/10 04:13:05;;;;;;;;;;;6.80;63.20;;;;;;5073078;28;19985;-64
2021/12/10 04:15:31;;;;;;;;;;;6.70;63.10;;;;;;5072766;28;20388;-63
2021/12/10 04:17:57;;;;;;;;;;;6.60;63.00;;;;;;5071205;28;19964;-64
2021/12/10 04:20:25;;;;;;;;;;;6.60;63.00;;;;;;5072180;28;19915;-64
2021/12/10 04:22:50;;;;;;;;;;;6.50;63.00;;;;;;5071734;28;19905;-64
2021/12/10 04:25:18;;;;;;;;;;;6.50;63.10;;;;;;5058867;28;20278;-64
2021/12/10 04:27:44;;;;;;;;;;;6.40;63.10;;;;;;5052925;28;19905;-64
2021/12/10 04:30:12;;;;;;;;;;;6.40;63.20;;;;;;5052803;28;19909;-64
2021/12/10 04:32:38;;;;;;;;;;;6.30;63.20;;;;;;5052809;28;19909;-64
2021/12/10 04:35:04;;;;;;;;;;;6.20;63.10;;;;;;5052575;28;19958;-64
2021/12/10 04:37:30;;;;;;;;;;;6.20;63.20;;;;;;5052654;28;19917;-64
2021/12/10 04:39:56;;;;;;;;;;;6.10;63.10;;;;;;5052764;28;19963;-64
2021/12/10 04:42:24;;;;;;;;;;;6.10;63.10;;;;;;5052821;28;19952;-64
2021/12/10 04:44:54;;;;;;;;;;;6.00;63.10;;;;;;5052592;28;20278;-64
2021/12/10 04:47:20;;;;;;;;;;;5.90;63.10;;;;;;5052518;28;20331;-64
2021/12/10 04:49:45;;;;;;;;;;;5.90;63.20;;;;;;5060347;28;19913;-64
2021/12/10 04:52:11;;;;;;;;;;;5.80;63.30;;;;;;5072647;28;20357;-64
2021/12/10 04:54:37;;;;;;;;;;;5.80;63.40;;;;;;5072682;28;19919;-64
2021/12/10 04:57:03;;;;;;;;;;;5.70;63.50;;;;;;5072508;28;20259;-64
2021/12/10 04:59:31;;;;;;;;;;;5.70;63.60;;;;;;5066364;28;19913;-64
2021/12/10 05:01:58;;;;;;;;;;;5.70;63.70;;;;;;5052472;28;19905;-64
2021/12/10 05:04:25;;;;;;;;;;;5.60;63.80;;;;;;5051049;28;20355;-64
2021/12/10 05:06:51;;;;;;;;;;;5.60;63.80;;;;;;5052276;28;19940;-64
2021/12/10 05:09:18;;;;;;;;;;;5.60;63.80;;;;;;5052253;28;19908;-64
2021/12/10 05:11:44;;;;;;;;;;;5.60;63.80;;;;;;5057224;28;20362;-64
2021/12/10 05:14:09;;;;;;;;;;;5.60;63.80;;;;;;5072251;28;19909;-65
2021/12/10 05:16:38;;;;;;;;;;;5.50;63.70;;;;;;5071978;28;19923;-65
2021/12/10 05:19:05;;;;;;;;;;;5.40;63.70;;;;;;5072160;28;19920;-64
2021/12/10 05:21:32;;;;;;;;;;;5.40;63.70;;;;;;5072271;28;20282;-65
2021/12/10 05:23:58;;;;;;;;;;;5.30;63.70;;;;;;5057119;28;19959;-64
2021/12/10 05:26:24;;;;;;;;;;;5.30;64.00;;;;;;5052128;28;20418;-65
2021/12/10 05:28:50;;;;;;;;;;;5.30;64.20;;;;;;5052106;28;20313;-64
2021/12/10 05:31:19;;;;;;;;;;;5.20;64.20;;;;;;5053528;28;19958;-65
2021/12/10 05:33:44;;;;;;;;;;;5.20;64.40;;;;;;5055844;28;19908;-65
2021/12/10 05:36:10;;;;;;;;;;;5.20;64.50;;;;;;5055720;28;20285;-64
2021/12/10 05:38:36;;;;;;;;;;;5.20;64.50;;;;;;5055725;28;19913;-64
2021/12/10 05:41:05;;;;;;;;;;;5.10;64.50;;;;;;5055648;28;19959;-64
2021/12/10 05:43:32;;;;;;;;;;;5.10;64.50;;;;;;5054366;28;20386;-64
2021/12/10 05:45:57;;;;;;;;;;;5.10;64.70;;;;;;5055550;28;19956;-64
2021/12/10 05:48:23;;;;;;;;;;;5.10;64.80;;;;;;5055375;28;19936;-65
2021/12/10 05:50:49;;;;;;;;;;;5.10;64.90;;;;;;5054504;28;19909;-65
2021/12/10 05:53:15;;;;;;;;;;;5.10;65.10;;;;;;5055594;28;19985;-65
2021/12/10 05:55:42;;;;;;;;;;;5.10;65.20;;;;;;5055430;28;19908;-65
2021/12/10 05:58:08;;;;;;;;;;;5.10;65.20;;;;;;5055300;28;19913;-64
2021/12/10 06:00:36;;;;;;;;;;;5.10;65.20;;;;;;5055395;28;19962;-64
2021/12/10 06:03:02;;;;;;;;;;;5.10;65.30;;;;;;5055155;28;19936;-64
2021/12/10 06:05:28;;;;;;;;;;;5.10;65.30;;;;;;5055215;28;20362;-65
2021/12/10 06:07:54;;;;;;;;;;;5.00;65.20;;;;;;5055183;28;19915;-64
2021/12/10 06:10:22;;;;;;;;;;;5.00;65.20;;;;;;5053852;28;19915;-64
2021/12/10 06:12:49;;;;;;;;;;;5.00;65.20;;;;;;5054956;28;20026;-64
2021/12/10 06:15:16;;;;;;;;;;;5.00;65.20;;;;;;5054763;28;20027;-65
2021/12/10 06:17:41;;;;;;;;;;;4.90;65.10;;;;;;5054954;28;19921;-64
2021/12/10 06:20:09;;;;;;;;;;;4.90;65.00;;;;;;5054827;28;19966;-64
2021/12/10 06:22:34;;;;;;;;;;;4.90;64.90;;;;;;5054693;28;19928;-65
2021/12/10 06:25:00;;;;;;;;;;;4.90;64.90;;;;;;5054644;28;19978;-64
2021/12/10 06:27:26;;;;;;;;;;;4.80;65.60;;;;;;5061360;28;19913;-64
2021/12/10 06:29:51;;;;;;;;;;;4.80;64.80;;;;;;5054610;28;19909;-65
2021/12/10 06:32:17;;;;;;;;;;;4.70;64.70;;;;;;5054694;28;20446;-65
2021/12/10 06:34:43;;;;;;;;;;;4.70;64.70;;;;;;5054589;28;19916;-65
2021/12/10 06:37:08;;;;;;;;;;;4.70;64.70;;;;;;5054545;28;19924;-66
2021/12/10 06:39:34;;;;;;;;;;;4.60;64.60;;;;;;5054780;28;19909;-65
2021/12/10 06:42:00;;;;;;;;;;;4.60;64.60;;;;;;5054468;28;19916;-65
2021/12/10 06:44:26;;;;;;;;;;;4.60;64.70;;;;;;5053193;28;19959;-65
2021/12/10 06:46:52;;;;;;;;;;;4.50;64.70;;;;;;5054649;28;19948;-65
2021/12/10 06:49:18;;;;;;;;;;;4.50;64.80;;;;;;5054526;28;19913;-65
2021/12/10 06:51:43;;;;;;;;;;;4.50;64.80;;;;;;5054497;28;20010;-65
2021/12/10 06:54:09;;;;;;;;;;;4.50;64.90;;;;;;5054620;28;19909;-65
2021/12/10 06:56:36;;;;;;;;;;;4.40;64.90;;;;;;5054458;28;20271;-65
2021/12/10 06:59:03;;;;;;;;;;;4.50;65.00;;;;;;5054544;28;19943;-65
2021/12/10 07:01:32;;;;;;;;;;;4.40;65.00;;;;;;5054356;28;20003;-65
2021/12/10 07:03:59;;;;;;;;;;;4.40;65.00;;;;;;5053129;28;19909;-64
2021/12/10 07:06:26;;;;;;;;;;;4.40;65.10;;;;;;5054393;28;19909;-65
2021/12/10 07:08:52;;;;;;;;;;;4.40;65.20;;;;;;5052922;28;19909;-65
2021/12/10 07:11:19;;;;;;;;;;;4.40;65.30;;;;;;5069307;28;19992;-66
2021/12/10 07:13:48;;;;;;;;;;;4.40;65.40;;;;;;5074275;28;19965;-65
2021/12/10 07:16:15;;;;;;;;;;;4.40;65.40;;;;;;5072240;28;19970;-65
2021/12/10 07:18:40;;;;;;;;;;;4.40;65.40;;;;;;5074043;28;19948;-65
2021/12/10 07:21:06;;;;;;;;;;;4.40;65.50;;;;;;5059606;28;20423;-65
2021/12/10 07:23:32;;;;;;;;;;;4.40;65.40;;;;;;5054065;28;20900;-65
2021/12/10 07:25:57;;;;;;;;;;;4.50;65.50;;;;;;5058414;28;19947;-65
2021/12/10 07:28:23;;;;;;;;;;;4.50;65.50;;;;;;5060772;28;20023;-66
2021/12/10 07:30:50;;;;;;;;;;;4.50;65.60;;;;;;5053774;28;19909;-66
2021/12/10 07:33:16;;;;;;;;;;;4.50;65.70;;;;;;5053953;28;20051;-65
2021/12/10 07:35:43;;;;;;;;;;;4.50;65.80;;;;;;5053781;28;19909;-65
2021/12/10 07:38:09;;;;;;;;;;;4.60;65.90;;;;;;5053416;28;20473;-66
2021/12/10 07:40:36;;;;;;;;;;;4.60;66.00;;;;;;5053566;28;19959;-65
2021/12/10 07:43:02;;;;;;;;;;;4.60;66.10;;;;;;5053553;28;19953;-66
2021/12/10 07:45:28;;;;;;;;;;;4.60;66.10;;;;;;5053503;28;20255;-65
2021/12/10 07:47:55;;;;;;;;;;;4.70;66.10;;;;;;5053409;28;19909;-65
2021/12/10 07:50:23;;;;;;;;;;;4.70;66.10;;;;;;5060530;28;19916;-65
2021/12/10 07:52:54;;;;;;;;;;;4.80;66.10;;;;;;5071268;28;19919;-66
2021/12/10 07:55:20;;;;;;;;;;;4.80;66.10;;;;;;5072601;28;19908;-65
2021/12/10 07:57:45;;;;;;;;;;;4.80;66.00;;;;;;5073183;28;19912;-66
2021/12/10 08:00:13;;;;;;;;;;;4.90;66.10;;;;;;5072929;28;19959;-65
2021/12/10 08:02:38;;;;;;;;;;;4.90;66.10;;;;;;5059068;28;20326;-65
2021/12/10 08:05:04;;;;;;;;;;;4.90;66.10;;;;;;5053139;28;19913;-66
2021/12/10 08:07:30;;;;;;;;;;;5.00;66.10;;;;;;5053005;28;19944;-66
2021/12/10 08:09:56;;;;;;;;;;;5.00;66.10;;;;;;5053024;28;20290;-66
2021/12/10 08:12:22;;;;;;;;;;;5.10;66.00;;;;;;5051803;28;19909;-65
2021/12/10 08:14:52;;;;;;;;;;;5.10;66.00;;;;;;5052591;28;19913;-65
2021/12/10 08:17:23;;;;;;;;;;;5.20;65.90;;;;;;5052912;28;20355;-65
2021/12/10 08:19:49;;;;;;;;;;;5.30;66.00;;;;;;5052858;28;19992;-65
2021/12/10 08:22:15;;;;;;;;;;;5.30;66.00;;;;;;5053092;28;19915;-65
2021/12/10 08:24:41;;;;;;;;;;;5.40;66.10;;;;;;5052975;28;20489;-65
2021/12/10 08:27:07;;;;;;;;;;;5.40;66.10;;;;;;5052925;28;20278;-65
2021/12/10 08:29:33;;;;;;;;;;;5.50;66.10;;;;;;5052854;28;20354;-65
2021/12/10 08:31:58;;;;;;;;;;;5.60;66.20;;;;;;5052734;28;19909;-65
2021/12/10 08:34:24;;;;;;;;;;;5.60;66.10;;;;;;5052738;28;19909;-65
2021/12/10 08:36:50;;;;;;;;;;;5.70;66.10;;;;;;5052672;28;19932;-65
2021/12/10 08:39:16;;;;;;;;;;;5.80;66.90;;;;;;5058345;28;19999;-65
2021/12/10 08:41:41;;;;;;;;;;;5.80;66.00;;;;;;5072734;28;19909;-65
2021/12/10 08:44:08;;;;;;;;;;;5.90;65.80;;;;;;5072500;28;19913;-65
2021/12/10 08:46:35;;;;;;;;;;;5.90;65.60;;;;;;5072605;28;20319;-66
2021/12/10 08:49:01;;;;;;;;;;;6.00;65.50;;;;;;5072630;28;19909;-66
2021/12/10 08:51:32;;;;;;;;;;;6.00;65.30;;;;;;5070928;28;19982;-66
2021/12/10 08:53:58;;;;;;;;;;;6.10;65.20;;;;;;5072514;28;19912;-66
2021/12/10 08:56:24;;;;;;;;;;;6.20;65.00;;;;;;5072451;28;19909;-66
2021/12/10 08:58:50;;;;;;;;;;;6.20;64.70;;;;;;5055433;28;20370;-66
2021/12/10 09:01:17;;;;;;;;;;;6.30;64.60;;;;;;5056018;28;19955;-67
2021/12/10 09:03:45;;;;;;;;;;;6.30;64.40;;;;;;5059447;28;19948;-66
2021/12/10 09:06:12;;;;;;;;;;;6.40;64.30;;;;;;5054936;28;20350;-66
2021/12/10 09:08:38;;;;;;;;;;;6.50;64.30;;;;;;5073512;28;19974;-66
2021/12/10 09:11:04;;;;;;;;;;;6.50;64.00;;;;;;5058401;28;19909;-66
2021/12/10 09:13:29;;;;;;;;;;;6.60;63.90;;;;;;5059525;28;20397;-63
2021/12/10 09:15:59;;;;;;;;;;;6.70;63.80;;;;;;5074171;28;19912;-66
2021/12/10 09:18:24;;;;;;;;;;;6.70;63.50;;;;;;5059488;28;19944;-65
2021/12/10 09:20:51;;;;;;;;;;;6.80;63.20;;;;;;5055832;28;20382;-63
2021/12/10 09:23:19;;;;;;;;;;;6.80;63.10;;;;;;5056719;28;19909;-64
2021/12/10 09:25:45;;;;;;;;;;;6.90;63.00;;;;;;5074524;28;19909;-65
2021/12/10 09:28:10;;;;;;;;;;;7.00;62.70;;;;;;5066738;28;19909;-66
2021/12/10 09:30:37;;;;;;;;;;;7.00;62.50;;;;;;5057448;28;19917;-66
2021/12/10 09:33:03;;;;;;;;;;;7.00;62.30;;;;;;5064418;28;19913;-65
2021/12/10 09:35:30;;;;;;;;;;;7.10;62.30;;;;;;5075917;28;20007;-66
2021/12/10 09:37:56;;;;;;;;;;;7.10;61.90;;;;;;5061766;28;19935;-65
2021/12/10 09:40:31;;;;;;;;;;;7.20;62.00;;;;;;5054639;28;20361;-66
2021/12/10 09:42:57;;;;;;;;;;;7.20;61.90;;;;;;5055839;28;19970;-65
2021/12/10 09:45:24;;;;;;;;;;;7.30;61.80;;;;;;5055671;28;19916;-66
2021/12/10 09:47:49;;;;;;;;;;;7.30;61.50;;;;;;5055844;28;19904;-65
2021/12/10 09:50:15;;;;;;;;;;;7.40;61.30;;;;;;5070788;28;20003;-65
2021/12/10 09:52:42;;;;;;;;;;;7.40;61.10;;;;;;5075464;28;19905;-65
2021/12/10 09:55:09;;;;;;;;;;;7.40;60.60;;;;;;5075185;28;19916;-65
2021/12/10 09:57:35;;;;;;;;;;;7.50;60.50;;;;;;5075383;28;20003;-65
2021/12/10 10:00:06;;;;;;;;;;;7.50;60.40;;;;;;5075807;28;19916;-65
2021/12/10 10:02:32;;;;;;;;;;;7.50;60.30;;;;;;5075470;28;19915;-65
2021/12/10 10:04:57;;;;;;;;;;;7.60;60.10;;;;;;5075424;28;19908;-65
2021/12/10 10:07:25;;;;;;;;;;;7.60;59.90;;;;;;5055534;28;19945;-65
2021/12/10 10:09:52;;;;;;;;;;;7.70;59.90;;;;;;5055352;28;19967;-65
2021/12/10 10:12:20;;;;;;;;;;;7.70;59.90;;;;;;5055325;28;20325;-65
2021/12/10 10:14:46;;;;;;;;;;;7.80;59.90;;;;;;5054951;28;20262;-65
2021/12/10 10:17:12;;;;;;;;;;;7.80;59.90;;;;;;5054166;28;19917;-65
2021/12/10 10:19:39;;;;;;;;;;;7.90;59.70;;;;;;5055185;28;19913;-65
2021/12/10 10:22:07;;;;;;;;;;;7.90;59.50;;;;;;5055152;28;19912;-65
2021/12/10 10:24:33;;;;;;;;;;;8.00;59.40;;;;;;5055025;28;19955;-66
2021/12/10 10:27:02;;;;;;;;;;;8.00;59.10;;;;;;5054927;28;19952;-65
2021/12/10 10:29:32;;;;;;;;;;;8.00;59.20;;;;;;5055026;28;20385;-65
2021/12/10 10:32:08;;;;;;;;;;;8.10;59.00;;;;;;5069082;28;19966;-65
2021/12/10 10:34:34;;;;;;;;;;;8.10;59.00;;;;;;5074970;28;19912;-65
2021/12/10 10:37:00;;;;;;;;;;;8.20;59.00;;;;;;5068085;28;19973;-66
2021/12/10 10:39:32;;;;;;;;;;;8.20;58.70;;;;;;5057326;28;19917;-66
2021/12/10 10:41:57;;;;;;;;;;;8.20;58.30;;;;;;5055432;28;19913;-65
2021/12/10 10:44:24;;;;;;;;;;;8.20;58.20;;;;;;5065451;28;19970;-65
2021/12/10 10:46:51;;;;;;;;;;;8.20;58.00;;;;;;5054556;28;19952;-64
2021/12/10 10:49:35;;;;;;;;;;;8.30;58.10;;;;;;5070418;28;20358;-65
2021/12/10 10:52:19;;;;;;;;;;;8.30;58.20;;;;;;5074444;28;20324;-66
2021/12/10 10:54:46;;;;;;;;;;;8.40;58.30;;;;;;5074404;28;19916;-66
2021/12/10 10:57:24;;;;;;;;;;;8.40;58.10;;;;;;5074344;28;19951;-65
2021/12/10 10:59:54;;;;;;;;;;;8.40;57.70;;;;;;5070515;28;19928;-66
2021/12/10 11:02:19;;;;;;;;;;;8.50;57.50;;;;;;5054357;28;19909;-66
2021/12/10 11:04:46;;;;;;;;;;;8.50;57.60;;;;;;5054019;28;19909;-66
2021/12/10 11:07:15;;;;;;;;;;;8.60;57.50;;;;;;5056794;28;19913;-66
2021/12/10 11:09:49;;;;;;;;;;;8.60;57.30;;;;;;5054059;28;20362;-66
2021/12/10 11:12:20;;;;;;;;;;;8.60;57.00;;;;;;5052845;28;20003;-65
2021/12/10 11:14:49;;;;;;;;;;;8.60;56.90;;;;;;5056103;28;19913;-66
2021/12/10 11:17:27;;;;;;;;;;;8.60;56.80;;;;;;5053931;28;20019;-66
2021/12/10 11:19:52;;;;;;;;;;;8.60;56.80;;;;;;5057200;28;20051;-66
2021/12/10 11:22:18;;;;;;;;;;;8.70;56.60;;;;;;5057721;28;19948;-66
2021/12/10 11:24:55;;;;;;;;;;;8.70;56.70;;;;;;5066089;28;19954;-65
2021/12/10 11:27:24;;;;;;;;;;;8.70;56.60;;;;;;5053666;28;19995;-66
2021/12/10 11:29:52;;;;;;;;;;;8.80;56.70;;;;;;5035727;28;19913;-65
2021/12/10 11:32:36;;;;;;;;;;;8.70;56.40;;;;;;5052117;28;19990;-65
2021/12/10 11:35:06;;;;;;;;;;;8.70;56.10;;;;;;5053900;28;19932;-65
2021/12/10 11:37:51;;;;;;;;;;;8.80;56.10;;;;;;5053510;28;19920;-65
2021/12/10 11:40:36;;;;;;;;;;;8.80;55.90;;;;;;5053423;28;19909;-65
2021/12/10 11:43:16;;;;;;;;;;;8.80;55.70;;;;;;5053315;28;19916;-65
2021/12/10 11:45:51;;;;;;;;;;;8.80;55.70;;;;;;5053393;28;19912;-65
2021/12/10 11:48:27;;;;;;;;;;;8.90;55.80;;;;;;5053428;28;19915;-65
2021/12/10 11:51:19;;;;;;;;;;;8.90;55.70;;;;;;5053255;28;19915;-64
2021/12/10 11:53:46;;;;;;;;;;;8.90;55.70;;;;;;5053988;28;19909;-64
2021/12/10 11:56:32;;;;;;;;;;;8.90;55.50;;;;;;5053227;28;20370;-64
2021/12/10 11:59:04;;;;;;;;;;;8.90;55.50;;;;;;5052998;28;19916;-64
2021/12/10 12:01:30;;;;;;;;;;;9.00;55.30;;;;;;5053268;28;19909;-65
2021/12/10 12:03:56;;;;;;;;;;;9.00;55.10;;;;;;5053109;28;19905;-65
2021/12/10 12:06:21;;;;;;;;;;;9.00;55.10;;;;;;5051893;28;19912;-65
2021/12/10 12:08:47;;;;;;;;;;;9.00;55.10;;;;;;5053150;28;19999;-65
2021/12/10 12:11:13;;;;;;;;;;;9.10;55.20;;;;;;5052882;28;20010;-65
2021/12/10 12:13:54;;;;;;;;;;;9.00;54.90;;;;;;5052884;28;19905;-66
2021/12/10 12:16:24;;;;;;;;;;;9.00;54.60;;;;;;5052661;28;20366;-66
2021/12/10 12:18:52;;;;;;;;;;;9.10;54.40;;;;;;5052776;28;20393;-66
2021/12/10 12:27:12;;;;;;;;;;;9.10;54.20;;;;;;5053105;28;20411;-66
2021/12/10 12:29:41;;;;;;;;;;;9.10;54.10;;;;;;5052766;28;19916;-65
2021/12/10 12:32:11;;;;;;;;;;;9.10;54.20;;;;;;5052614;28;20316;-66
2021/12/10 12:34:37;;;;;;;;;;;9.10;54.10;;;;;;5052597;28;19912;-66
2021/12/10 12:37:04;;;;;;;;;;;9.10;54.20;;;;;;5052704;28;19905;-66
2021/12/10 12:39:36;;;;;;;;;;;9.20;54.30;;;;;;5052659;28;19999;-66
2021/12/10 12:42:04;;;;;;;;;;;9.10;54.00;;;;;;5052040;28;19916;-66
2021/12/10 12:44:34;;;;;;;;;;;9.20;54.10;;;;;;5052706;28;20309;-65
2021/12/10 12:47:00;;;;;;;;;;;9.20;54.10;;;;;;5052406;28;20366;-65
2021/12/10 12:49:30;;;;;;;;;;;9.20;54.20;;;;;;5052414;28;19916;-65
2021/12/10 12:52:22;;;;;;;;;;;9.20;54.20;;;;;;5052520;28;19913;-65
2021/12/10 12:55:04;;;;;;;;;;;9.30;54.20;;;;;;5052121;28;19909;-66
2021/12/10 12:57:48;;;;;;;;;;;9.30;54.10;;;;;;5052436;28;19913;-66
2021/12/10 13:00:23;;;;;;;;;;;9.30;54.00;;;;;;5051334;28;19913;-66
2021/12/10 13:02:50;;;;;;;;;;;9.30;53.90;;;;;;5052357;28;20386;-66
2021/12/10 13:05:16;;;;;;;;;;;9.30;53.80;;;;;;5052324;28;19909;-66
2021/12/10 13:07:42;;;;;;;;;;;9.30;53.60;;;;;;5052374;28;20414;-66
2021/12/10 13:10:16;;;;;;;;;;;9.30;53.60;;;;;;5051136;28;19986;-66
2021/12/10 13:12:55;;;;;;;;;;;9.30;53.50;;;;;;5052203;28;19908;-66
2021/12/10 13:15:23;;;;;;;;;;;9.30;53.50;;;;;;5052134;28;19963;-65
2021/12/10 13:17:57;;;;;;;;;;;9.30;53.40;;;;;;5053881;28;19921;-66
2021/12/10 13:20:29;;;;;;;;;;;9.30;53.40;;;;;;5054879;28;19912;-66
2021/12/10 13:22:57;;;;;;;;;;;9.30;53.30;;;;;;5052452;28;20309;-65
2021/12/10 13:25:25;;;;;;;;;;;9.30;53.10;;;;;;5052153;28;19909;-65
2021/12/10 13:27:50;;;;;;;;;;;9.30;53.10;;;;;;5051641;28;19915;-65
2021/12/10 13:30:22;;;;;;;;;;;9.30;53.20;;;;;;5063582;28;20004;-65
2021/12/10 13:32:49;;;;;;;;;;;9.30;53.20;;;;;;5070024;28;19909;-65
2021/12/10 13:35:15;;;;;;;;;;;9.30;52.90;;;;;;5072052;28;19909;-65
2021/12/10 13:37:41;;;;;;;;;;;9.30;53.10;;;;;;5070371;28;19921;-65
2021/12/10 13:40:08;;;;;;;;;;;9.30;53.20;;;;;;5069592;28;19943;-66
2021/12/10 13:42:33;;;;;;;;;;;9.30;53.20;;;;;;5051912;28;19916;-65
2021/12/10 13:44:59;;;;;;;;;;;9.40;53.30;;;;;;5068641;28;19923;-66
2021/12/10 13:47:33;;;;;;;;;;;9.40;53.10;;;;;;5070039;28;20205;-65
2021/12/10 13:50:04;;;;;;;;;;;9.40;53.00;;;;;;5060753;28;19958;-65
2021/12/10 13:52:38;;;;;;;;;;;9.40;52.90;;;;;;5066066;28;20393;-66
2021/12/10 13:55:05;;;;;;;;;;;9.40;52.80;;;;;;5063337;28;19917;-66
2021/12/10 13:57:31;;;;;;;;;;;9.40;52.80;;;;;;5055485;28;19919;-66
2021/12/10 13:59:58;;;;;;;;;;;9.40;52.60;;;;;;5055379;28;19912;-65
2021/12/10 14:02:34;;;;;;;;;;;9.40;52.60;;;;;;5057985;28;19974;-65
2021/12/10 14:05:14;;;;;;;;;;;9.40;52.60;;;;;;5065144;28;20366;-65
2021/12/10 14:07:48;;;;;;;;;;;9.40;52.60;;;;;;5054122;28;20010;-66
2021/12/10 14:10:22;;;;;;;;;;;9.30;52.50;;;;;;5055264;28;20446;-66
2021/12/10 14:12:47;;;;;;;;;;;9.30;52.30;;;;;;5055374;28;19916;-66
2021/12/10 14:15:13;;;;;;;;;;;9.30;52.50;;;;;;5055135;28;20378;-66
2021/12/10 14:17:52;;;;;;;;;;;9.20;52.20;;;;;;5055192;28;19920;-66
2021/12/10 14:20:21;;;;;;;;;;;9.20;52.20;;;;;;5055336;28;19909;-66
2021/12/10 14:22:51;;;;;;;;;;;9.10;52.20;;;;;;5055177;28;19955;-66
2021/12/10 14:25:45;;;;;;;;;;;9.10;52.30;;;;;;5055112;28;19909;-66
2021/12/10 14:28:19;;;;;;;;;;;9.00;52.30;;;;;;5054732;28;19905;-67
2021/12/10 14:30:46;;;;;;;;;;;9.00;52.30;;;;;;5054903;28;19909;-66
2021/12/10 14:33:14;;;;;;;;;;;8.90;52.30;;;;;;5054824;28;19917;-66
2021/12/10 14:35:49;;;;;;;;;;;8.80;52.30;;;;;;5054852;28;19905;-67
2021/12/10 14:38:15;;;;;;;;;;;8.80;52.50;;;;;;5054709;28;19912;-66
2021/12/10 14:40:50;;;;;;;;;;;8.70;52.50;;;;;;5053391;28;19916;-66
2021/12/10 14:43:26;;;;;;;;;;;8.60;52.60;;;;;;5054652;28;19913;-66
2021/12/10 14:46:07;;;;;;;;;;;8.50;52.60;;;;;;5054727;28;19975;-66
2021/12/10 14:48:35;;;;;;;;;;;8.40;52.60;;;;;;5053301;28;19931;-66
2021/12/10 14:51:07;;;;;;;;;;;8.40;52.80;;;;;;5054563;28;19909;-66
2021/12/10 14:53:35;;;;;;;;;;;8.30;52.90;;;;;;5054540;28;20434;-66
2021/12/10 14:56:15;;;;;;;;;;;8.20;53.00;;;;;;5054553;28;19916;-66